createdAt,value
2023-03-04T00:00:32.824Z,61.49
2023-03-04T00:02:59.468Z,61.76
2023-03-04T00:05:26.175Z,60.89
2023-03-04T00:07:52.731Z,61.25
2023-03-04T00:10:19.363Z,60.50
2023-03-04T00:12:45.942Z,61.16
2023-03-04T00:15:12.521Z,60.13
2023-03-04T00:17:39.128Z,59.64
2023-03-04T00:20:05.713Z,60.89
2023-03-04T00:22:32.310Z,60.91
2023-03-04T00:24:58.884Z,61.84
2023-03-04T00:27:25.496Z,61.85
2023-03-04T00:29:52.047Z,62.03
2023-03-04T00:32:18.664Z,61.82
2023-03-04T00:34:45.258Z,62.38
2023-03-04T00:37:11.855Z,62.36
2023-03-04T00:39:38.434Z,61.77
2023-03-04T00:42:05.023Z,62.62
2023-03-04T00:44:32.615Z,62.35
2023-03-04T00:46:59.178Z,61.25
2023-03-04T00:49:25.818Z,61.98
2023-03-04T00:51:52.409Z,61.21
2023-03-04T00:54:19.123Z,60.71
2023-03-04T00:56:45.726Z,60.99
2023-03-04T00:59:12.405Z,60.60
2023-03-04T01:01:39.039Z,60.65
2023-03-04T01:04:05.655Z,59.76
2023-03-04T01:06:35.268Z,60.19
2023-03-04T01:09:01.882Z,59.70
2023-03-04T01:11:28.460Z,59.48
2023-03-04T01:13:55.060Z,60.03
2023-03-04T01:16:21.644Z,59.21
2023-03-04T01:18:48.300Z,59.87
2023-03-04T01:21:14.856Z,59.67
2023-03-04T01:23:41.539Z,60.42
2023-03-04T01:26:08.107Z,60.13
2023-03-04T01:28:34.688Z,59.96
2023-03-04T01:31:01.347Z,60.55
2023-03-04T01:33:27.932Z,60.48
2023-03-04T01:35:54.631Z,60.48
2023-03-04T01:38:21.265Z,60.94
2023-03-04T01:40:47.853Z,60.81
2023-03-04T01:43:14.883Z,60.97
2023-03-04T01:45:41.454Z,60.31
2023-03-04T01:48:08.180Z,60.24
2023-03-04T01:50:34.758Z,61.28
2023-03-04T01:53:03.567Z,61.97
2023-03-04T01:55:30.308Z,62.60
2023-03-04T01:57:56.876Z,61.50
2023-03-04T02:00:23.501Z,61.36
2023-03-04T02:02:50.066Z,61.56
2023-03-04T02:05:16.682Z,61.51
2023-03-04T02:07:43.243Z,61.40
2023-03-04T02:10:09.823Z,60.97
2023-03-04T02:12:36.396Z,60.77
2023-03-04T02:15:03.251Z,60.23
2023-03-04T02:17:29.881Z,59.72
2023-03-04T02:19:56.446Z,60.63
2023-03-04T02:22:23.053Z,60.62
2023-03-04T02:24:49.652Z,60.44
2023-03-04T02:27:16.239Z,59.43
2023-03-04T02:29:42.828Z,60.07
2023-03-04T02:32:09.511Z,60.05
2023-03-04T02:34:36.106Z,60.17
2023-03-04T02:37:02.706Z,60.89
2023-03-04T02:39:29.312Z,61.10
2023-03-04T02:41:56.194Z,61.44
2023-03-04T02:44:22.751Z,60.55
2023-03-04T02:46:49.394Z,60.51
2023-03-04T02:49:15.996Z,61.06
2023-03-04T02:51:42.570Z,61.52
2023-03-04T02:54:09.156Z,61.23
2023-03-04T02:56:35.781Z,61.42
2023-03-04T02:59:02.350Z,60.80
2023-03-04T03:01:29.003Z,60.66
2023-03-04T03:03:55.621Z,60.35
2023-03-04T03:06:22.239Z,60.76
2023-03-04T03:08:49.161Z,60.44
2023-03-04T03:11:15.757Z,60.22
2023-03-04T03:13:42.408Z,61.84
2023-03-04T03:16:09.049Z,62.21
2023-03-04T03:18:35.659Z,61.54
2023-03-04T03:21:02.244Z,61.67
2023-03-04T03:23:28.848Z,61.27
2023-03-04T03:25:55.438Z,60.88
2023-03-04T03:28:21.985Z,60.51
2023-03-04T03:30:48.592Z,61.23
2023-03-04T03:33:15.153Z,60.84
2023-03-04T03:35:41.779Z,61.18
2023-03-04T03:38:08.396Z,61.09
2023-03-04T03:40:35.009Z,60.19
2023-03-04T03:43:01.702Z,60.35
2023-03-04T03:45:28.367Z,61.34
2023-03-04T03:47:55.035Z,61.07
2023-03-04T03:50:21.592Z,61.46
2023-03-04T03:52:48.168Z,60.52
2023-03-04T03:55:14.780Z,60.96
2023-03-04T03:57:41.380Z,60.93
2023-03-04T04:00:07.968Z,61.53
2023-03-04T04:02:34.638Z,61.48
2023-03-04T04:05:01.216Z,61.39
2023-03-04T04:07:27.820Z,61.40
2023-03-04T04:09:54.382Z,61.54
2023-03-04T04:12:20.950Z,61.72
2023-03-04T04:14:47.569Z,61.38
2023-03-04T04:17:14.128Z,61.65
2023-03-04T04:19:40.744Z,61.64
2023-03-04T04:22:07.431Z,60.93
2023-03-04T04:24:33.976Z,61.00
2023-03-04T04:27:00.578Z,61.98
2023-03-04T04:29:27.180Z,62.79
2023-03-04T04:31:53.753Z,62.63
2023-03-04T04:34:20.304Z,61.50
2023-03-04T04:36:46.906Z,62.03
2023-03-04T04:39:13.678Z,61.49
2023-03-04T04:41:40.281Z,60.77
2023-03-04T04:44:06.880Z,60.95
2023-03-04T04:46:33.454Z,60.78
2023-03-04T04:49:00.034Z,60.89
2023-03-04T04:51:26.918Z,59.79
2023-03-04T04:53:53.466Z,59.93
2023-03-04T04:56:20.040Z,59.82
2023-03-04T04:58:46.621Z,59.89
2023-03-04T05:01:13.267Z,59.99
2023-03-04T05:03:39.980Z,62.28
2023-03-04T05:06:06.656Z,61.49
2023-03-04T05:08:33.245Z,60.99
2023-03-04T05:10:59.858Z,61.13
2023-03-04T05:13:26.437Z,61.22
2023-03-04T05:15:53.052Z,61.01
2023-03-04T05:18:19.642Z,60.97
2023-03-04T05:20:46.221Z,60.77
2023-03-04T05:23:12.965Z,60.46
2023-03-04T05:25:39.564Z,60.96
2023-03-04T05:28:06.188Z,60.86
2023-03-04T05:30:32.758Z,60.51
2023-03-04T05:32:59.346Z,60.64
2023-03-04T05:35:28.789Z,60.70
2023-03-04T05:37:55.584Z,60.72
2023-03-04T05:40:22.314Z,60.44
2023-03-04T05:42:48.907Z,60.54
2023-03-04T05:45:15.523Z,60.16
2023-03-04T05:47:42.093Z,60.55
2023-03-04T05:50:08.703Z,59.97
2023-03-04T05:52:35.285Z,60.18
2023-03-04T05:55:01.877Z,59.95
2023-03-04T05:57:29.509Z,60.10
2023-03-04T05:59:57.429Z,59.69
2023-03-04T06:02:24.068Z,59.48
2023-03-04T06:04:50.660Z,59.24
2023-03-04T06:07:17.288Z,59.24
2023-03-04T06:09:43.901Z,60.47
2023-03-04T06:12:10.656Z,59.76
2023-03-04T06:14:37.251Z,59.70
2023-03-04T06:17:03.858Z,59.36
2023-03-04T06:19:30.423Z,59.12
2023-03-04T06:21:57.050Z,59.27
2023-03-04T06:24:23.609Z,59.84
2023-03-04T06:26:50.221Z,59.74
2023-03-04T06:29:16.794Z,60.00
2023-03-04T06:31:43.444Z,59.98
2023-03-04T06:34:10.043Z,60.70
2023-03-04T06:36:36.638Z,60.10
2023-03-04T06:39:03.238Z,60.54
2023-03-04T06:41:30.007Z,60.74
2023-03-04T06:43:56.599Z,59.49
2023-03-04T06:46:23.286Z,60.56
2023-03-04T06:48:49.892Z,60.66
2023-03-04T06:51:16.515Z,60.32
2023-03-04T06:53:43.269Z,60.07
2023-03-04T06:56:09.873Z,59.11
2023-03-04T06:58:36.453Z,59.55
2023-03-04T07:01:03.134Z,59.91
2023-03-04T07:03:29.718Z,59.65
2023-03-04T07:05:56.333Z,60.68
2023-03-04T07:08:22.933Z,60.04
2023-03-04T07:10:49.490Z,60.19
2023-03-04T07:13:16.115Z,59.95
2023-03-04T07:15:42.860Z,59.07
2023-03-04T07:18:09.490Z,58.39
2023-03-04T07:20:36.092Z,58.29
2023-03-04T07:23:02.641Z,57.56
2023-03-04T07:25:29.238Z,57.33
2023-03-04T07:27:55.831Z,57.11
2023-03-04T07:30:22.431Z,56.33
2023-03-04T07:32:49.065Z,56.08
2023-03-04T07:35:15.706Z,55.90
2023-03-04T07:37:42.258Z,55.26
2023-03-04T07:40:08.856Z,54.35
2023-03-04T07:42:35.549Z,54.17
2023-03-04T07:45:02.133Z,53.82
2023-03-04T07:47:28.738Z,53.86
2023-03-04T07:49:55.852Z,54.04
2023-03-04T07:52:22.460Z,53.45
2023-03-04T07:54:49.023Z,54.03
2023-03-04T07:57:15.619Z,54.16
2023-03-04T07:59:42.202Z,53.46
2023-03-04T08:02:08.801Z,53.03
2023-03-04T08:04:35.535Z,52.08
2023-03-04T08:07:02.154Z,52.84
2023-03-04T08:09:29.286Z,52.45
2023-03-04T08:11:55.943Z,51.99
2023-03-04T08:14:22.517Z,52.63
2023-03-04T08:16:49.100Z,52.04
2023-03-04T08:19:15.689Z,51.59
2023-03-04T08:21:42.294Z,52.13
2023-03-04T08:24:09.330Z,52.30
2023-03-04T08:26:36.009Z,52.13
2023-03-04T08:29:02.620Z,52.62
2023-03-04T08:31:29.328Z,52.20
2023-03-04T08:33:55.930Z,52.10
2023-03-04T08:36:22.562Z,51.82
2023-03-04T08:38:49.181Z,50.97
2023-03-04T08:41:15.793Z,51.66
2023-03-04T08:43:42.346Z,51.40
2023-03-04T08:46:09.154Z,50.94
2023-03-04T08:48:35.790Z,51.41
2023-03-04T08:51:02.355Z,51.74
2023-03-04T08:53:28.953Z,51.84
2023-03-04T08:55:55.572Z,50.39
2023-03-04T08:58:22.157Z,51.66
2023-03-04T09:00:48.759Z,52.13
2023-03-04T09:03:15.369Z,50.63
2023-03-04T09:05:43.880Z,49.98
2023-03-04T09:08:10.459Z,49.82
2023-03-04T09:10:37.064Z,52.09
2023-03-04T09:13:03.702Z,51.68
2023-03-04T09:15:30.265Z,49.08
2023-03-04T09:17:56.908Z,48.98
2023-03-04T09:20:23.498Z,48.37
2023-03-04T09:22:50.083Z,48.41
2023-03-04T09:25:16.655Z,48.47
2023-03-04T09:27:43.239Z,48.89
2023-03-04T09:30:09.814Z,49.28
2023-03-04T09:32:36.499Z,50.29
2023-03-04T09:35:03.124Z,49.00
2023-03-04T09:37:29.711Z,47.95
2023-03-04T09:39:56.322Z,47.89
2023-03-04T09:42:22.928Z,47.61
2023-03-04T09:44:49.520Z,47.99
2023-03-04T09:47:16.086Z,49.61
2023-03-04T09:49:42.682Z,48.00
2023-03-04T09:52:09.305Z,47.57
2023-03-04T09:54:35.961Z,48.26
2023-03-04T09:57:02.551Z,49.20
2023-03-04T09:59:29.144Z,47.48
2023-03-04T10:01:55.718Z,47.20
2023-03-04T10:04:22.363Z,49.46
2023-03-04T10:06:49.500Z,48.06
2023-03-04T10:09:16.111Z,48.02
2023-03-04T10:11:42.709Z,47.68
2023-03-04T10:14:09.380Z,47.26
2023-03-04T10:16:35.985Z,47.14
2023-03-04T10:19:02.666Z,48.63
2023-03-04T10:21:29.230Z,47.75
2023-03-04T10:23:57.197Z,46.12
2023-03-04T10:26:25.357Z,46.06
2023-03-04T10:28:51.918Z,47.34
2023-03-04T10:31:18.890Z,47.46
2023-03-04T10:33:45.646Z,45.93
2023-03-04T10:36:12.350Z,44.50
2023-03-04T10:38:38.967Z,45.33
2023-03-04T10:41:05.536Z,43.79
2023-03-04T10:43:32.139Z,43.89
2023-03-04T10:45:58.783Z,41.12
2023-03-04T10:48:25.529Z,42.38
2023-03-04T10:50:52.221Z,40.63
2023-03-04T10:53:18.849Z,41.42
2023-03-04T10:55:45.450Z,41.00
2023-03-04T10:58:12.168Z,41.48
2023-03-04T11:00:38.721Z,41.65
2023-03-04T11:03:05.387Z,40.97
2023-03-04T11:05:31.960Z,39.67
2023-03-04T11:07:58.538Z,37.34
2023-03-04T11:10:25.136Z,37.85
2023-03-04T11:12:51.696Z,37.43
2023-03-04T11:15:18.317Z,38.41
2023-03-04T11:17:44.893Z,38.75
2023-03-04T11:20:11.549Z,37.80
2023-03-04T11:22:38.139Z,36.92
2023-03-04T11:25:04.738Z,37.56
2023-03-04T11:27:31.342Z,37.67
2023-03-04T11:29:57.908Z,36.26
2023-03-04T11:32:24.557Z,36.47
2023-03-04T11:34:51.292Z,37.08
2023-03-04T11:37:17.905Z,37.69
2023-03-04T11:39:44.575Z,36.39
2023-03-04T11:42:11.167Z,36.62
2023-03-04T11:44:37.744Z,37.12
2023-03-04T11:47:04.589Z,37.02
2023-03-04T11:49:31.169Z,36.93
2023-03-04T11:51:57.835Z,37.11
2023-03-04T11:54:24.423Z,36.79
2023-03-04T11:56:50.978Z,36.18
2023-03-04T11:59:17.567Z,34.57
2023-03-04T12:01:44.180Z,34.82
2023-03-04T12:04:10.864Z,36.08
2023-03-04T12:06:37.532Z,35.63
2023-03-04T12:09:04.222Z,35.87
2023-03-04T12:11:30.808Z,34.28
2023-03-04T12:13:57.378Z,37.03
2023-03-04T12:16:24.013Z,35.33
2023-03-04T12:18:50.638Z,34.69
2023-03-04T12:21:17.272Z,34.04
2023-03-04T12:23:43.869Z,31.76
2023-03-04T12:26:10.509Z,32.01
2023-03-04T12:28:37.100Z,33.70
2023-03-04T12:31:03.733Z,32.82
2023-03-04T12:33:30.435Z,33.31
2023-03-04T12:35:57.066Z,32.09
2023-03-04T12:38:23.638Z,32.55
2023-03-04T12:40:50.287Z,33.97
2023-03-04T12:43:17.057Z,32.74
2023-03-04T12:45:43.782Z,32.22
2023-03-04T12:48:10.380Z,33.01
2023-03-04T12:50:37.023Z,33.68
2023-03-04T12:53:03.603Z,31.84
2023-03-04T12:55:30.207Z,32.64
2023-03-04T12:57:56.782Z,30.96
2023-03-04T13:00:23.346Z,30.87
2023-03-04T13:02:50.031Z,30.78
2023-03-04T13:05:16.650Z,30.13
2023-03-04T13:07:44.886Z,30.08
2023-03-04T13:10:11.451Z,30.27
2023-03-04T13:12:38.077Z,32.05
2023-03-04T13:15:04.665Z,33.03
2023-03-04T13:17:31.252Z,30.03
2023-03-04T13:19:57.908Z,31.62
2023-03-04T13:22:24.470Z,30.53
2023-03-04T13:24:51.096Z,30.11
2023-03-04T13:27:17.685Z,30.16
2023-03-04T13:29:44.253Z,29.79
2023-03-04T13:32:10.886Z,29.43
2023-03-04T13:34:37.508Z,30.25
2023-03-04T13:37:04.091Z,29.16
2023-03-04T13:39:30.687Z,28.56
2023-03-04T13:41:57.294Z,30.30
2023-03-04T13:44:23.859Z,29.41
2023-03-04T13:46:50.469Z,29.53
2023-03-04T13:49:17.099Z,29.77
2023-03-04T13:51:43.688Z,29.05
2023-03-04T13:54:10.292Z,28.64
2023-03-04T13:56:37.742Z,28.96
2023-03-04T13:59:04.561Z,28.92
2023-03-04T14:01:31.130Z,28.43
2023-03-04T14:03:57.755Z,28.82
2023-03-04T14:06:24.338Z,29.22
2023-03-04T14:08:50.976Z,29.83
2023-03-04T14:11:17.551Z,30.18
2023-03-04T14:13:44.143Z,29.04
2023-03-04T14:16:10.795Z,29.09
2023-03-04T14:18:37.390Z,27.27
2023-03-04T14:21:03.990Z,29.42
2023-03-04T14:23:30.572Z,28.33
2023-03-04T14:25:57.175Z,29.03
2023-03-04T14:28:23.743Z,28.62
2023-03-04T14:30:50.341Z,28.82
2023-03-04T14:33:16.923Z,28.51
2023-03-04T14:35:43.566Z,28.33
2023-03-04T14:38:12.457Z,28.34
2023-03-04T14:40:39.050Z,29.25
2023-03-04T14:43:05.639Z,29.85
2023-03-04T14:45:32.320Z,28.99
2023-03-04T14:47:58.984Z,29.27
2023-03-04T14:50:25.568Z,29.11
2023-03-04T14:52:52.147Z,28.63
2023-03-04T14:55:18.781Z,29.81
2023-03-04T14:57:45.376Z,29.63
2023-03-04T15:00:11.967Z,30.93
2023-03-04T15:02:38.561Z,31.78
2023-03-04T15:05:14.288Z,32.30
2023-03-04T15:07:42.948Z,32.35
2023-03-04T15:10:09.625Z,32.32
2023-03-04T15:12:36.295Z,32.02
2023-03-04T15:15:02.863Z,32.73
2023-03-04T15:17:29.450Z,31.27
2023-03-04T15:19:56.240Z,31.12
2023-03-04T15:22:22.804Z,31.59
2023-03-04T15:24:49.452Z,32.07
2023-03-04T15:27:16.007Z,32.11
2023-03-04T15:29:42.580Z,31.63
2023-03-04T15:32:09.202Z,30.93
2023-03-04T15:34:35.880Z,31.29
2023-03-04T15:37:02.468Z,31.04
2023-03-04T15:39:29.059Z,28.35
2023-03-04T15:41:55.627Z,27.83
2023-03-04T15:44:22.215Z,31.35
2023-03-04T15:46:48.788Z,28.29
2023-03-04T15:49:15.382Z,28.15
2023-03-04T15:51:42.208Z,28.06
2023-03-04T15:54:08.790Z,28.30
2023-03-04T15:56:35.405Z,29.17
2023-03-04T15:59:01.963Z,28.25
2023-03-04T16:01:28.562Z,27.57
2023-03-04T16:03:55.152Z,27.60
2023-03-04T16:06:21.771Z,27.94
2023-03-04T16:08:48.386Z,28.81
2023-03-04T16:11:14.943Z,28.71
2023-03-04T16:13:41.569Z,28.71
2023-03-04T16:16:08.201Z,28.83
2023-03-04T16:18:34.807Z,28.28
2023-03-04T16:21:01.407Z,28.22
2023-03-04T16:23:27.972Z,28.91
2023-03-04T16:25:54.584Z,29.51
2023-03-04T16:28:21.317Z,29.08
2023-03-04T16:30:47.933Z,29.37
2023-03-04T16:33:14.555Z,29.06
2023-03-04T16:35:41.256Z,29.41
2023-03-04T16:38:07.902Z,30.23
2023-03-04T16:40:34.505Z,30.27
2023-03-04T16:43:01.076Z,30.83
2023-03-04T16:45:27.691Z,30.45
2023-03-04T16:47:54.245Z,30.60
2023-03-04T16:50:20.851Z,30.40
2023-03-04T16:52:47.421Z,30.19
2023-03-04T16:55:14.203Z,30.10
2023-03-04T16:57:40.756Z,29.94
2023-03-04T17:00:07.396Z,29.98
2023-03-04T17:02:34.045Z,29.69
2023-03-04T17:05:00.649Z,30.02
2023-03-04T17:07:27.231Z,30.28
2023-03-04T17:09:53.848Z,30.27
2023-03-04T17:12:20.556Z,30.39
2023-03-04T17:14:47.268Z,30.58
2023-03-04T17:17:13.901Z,30.44
2023-03-04T17:19:40.500Z,30.81
2023-03-04T17:22:07.123Z,30.62
2023-03-04T17:24:33.717Z,31.98
2023-03-04T17:27:00.285Z,32.37
2023-03-04T17:29:26.936Z,31.49
2023-03-04T17:31:53.543Z,30.87
2023-03-04T17:34:20.260Z,31.07
2023-03-04T17:36:46.863Z,31.34
2023-03-04T17:39:13.504Z,30.88
2023-03-04T17:41:40.112Z,31.70
2023-03-04T17:44:06.711Z,31.42
2023-03-04T17:46:33.360Z,32.18
2023-03-04T17:48:59.991Z,32.75
2023-03-04T17:51:26.572Z,32.85
2023-03-04T17:53:53.368Z,32.68
2023-03-04T17:56:19.935Z,33.30
2023-03-04T17:58:46.626Z,33.41
2023-03-04T18:01:13.245Z,33.69
2023-03-04T18:03:39.840Z,33.35
2023-03-04T18:06:06.399Z,32.97
2023-03-04T18:08:33.132Z,33.03
2023-03-04T18:10:59.866Z,33.27
2023-03-04T18:13:26.467Z,33.07
2023-03-04T18:15:53.062Z,33.03
2023-03-04T18:18:19.639Z,33.12
2023-03-04T18:20:46.306Z,33.42
2023-03-04T18:23:12.881Z,33.99
2023-03-04T18:25:39.503Z,33.85
2023-03-04T18:28:06.134Z,33.88
2023-03-04T18:30:32.762Z,33.97
2023-03-04T18:32:59.465Z,33.92
2023-03-04T18:35:26.200Z,33.84
2023-03-04T18:37:52.836Z,34.05
2023-03-04T18:40:19.424Z,34.05
2023-03-04T18:42:46.002Z,34.55
2023-03-04T18:45:12.605Z,35.03
2023-03-04T18:47:39.211Z,35.35
2023-03-04T18:50:05.795Z,35.04
2023-03-04T18:52:32.428Z,34.88
2023-03-04T18:54:59.018Z,35.18
2023-03-04T18:57:25.608Z,35.49
2023-03-04T18:59:52.172Z,35.97
2023-03-04T19:02:18.761Z,35.93
2023-03-04T19:04:45.463Z,35.60
2023-03-04T19:07:12.114Z,35.75
2023-03-04T19:09:38.783Z,35.87
2023-03-04T19:12:05.378Z,36.29
2023-03-04T19:14:31.968Z,36.11
2023-03-04T19:16:58.565Z,36.55
2023-03-04T19:19:25.177Z,37.01
2023-03-04T19:21:51.788Z,37.00
2023-03-04T19:24:18.408Z,36.76
2023-03-04T19:26:45.011Z,37.58
2023-03-04T19:29:11.916Z,37.69
2023-03-04T19:31:41.080Z,37.59
2023-03-04T19:34:08.047Z,37.80
2023-03-04T19:36:34.654Z,38.14
2023-03-04T19:39:01.265Z,38.23
2023-03-04T19:41:30.216Z,37.75
2023-03-04T19:43:57.009Z,38.40
2023-03-04T19:46:23.601Z,38.15
2023-03-04T19:48:50.240Z,38.54
2023-03-04T19:51:16.874Z,38.56
2023-03-04T19:53:43.560Z,38.77
2023-03-04T19:56:10.121Z,38.38
2023-03-04T19:58:36.722Z,38.28
2023-03-04T20:01:03.362Z,38.68
2023-03-04T20:03:30.006Z,38.43
2023-03-04T20:05:56.599Z,37.99
2023-03-04T20:08:23.156Z,38.18
2023-03-04T20:10:49.770Z,38.34
2023-03-04T20:13:16.322Z,39.12
2023-03-04T20:15:42.996Z,39.38
2023-03-04T20:18:09.630Z,39.31
2023-03-04T20:20:36.214Z,39.46
2023-03-04T20:23:02.790Z,39.18
2023-03-04T20:25:29.392Z,39.62
2023-03-04T20:27:55.971Z,39.61
2023-03-04T20:30:22.681Z,39.92
2023-03-04T20:32:49.250Z,39.74
2023-03-04T20:35:15.803Z,40.00
2023-03-04T20:37:42.743Z,40.13
2023-03-04T20:40:09.319Z,40.18
2023-03-04T20:42:35.900Z,40.93
2023-03-04T20:45:02.474Z,41.22
2023-03-04T20:47:29.078Z,42.21
2023-03-04T20:49:55.728Z,41.83
2023-03-04T20:52:22.397Z,42.05
2023-03-04T20:54:50.116Z,41.96
2023-03-04T20:57:16.717Z,41.89
2023-03-04T20:59:43.337Z,42.07
2023-03-04T21:02:09.948Z,41.92
2023-03-04T21:04:36.630Z,42.69
2023-03-04T21:07:03.237Z,42.02
2023-03-04T21:09:29.841Z,42.74
2023-03-04T21:11:56.401Z,42.73
2023-03-04T21:14:23.036Z,42.99
2023-03-04T21:16:49.635Z,42.88
2023-03-04T21:19:16.991Z,43.19
2023-03-04T21:21:43.647Z,43.08
2023-03-04T21:24:10.219Z,43.51
2023-03-04T21:26:36.966Z,43.76
2023-03-04T21:29:03.532Z,43.58
2023-03-04T21:31:30.174Z,43.90
2023-03-04T21:33:56.791Z,43.85
2023-03-04T21:36:23.490Z,43.95
2023-03-04T21:38:50.122Z,43.68
2023-03-04T21:41:16.715Z,43.99
2023-03-04T21:43:43.347Z,43.92
2023-03-04T21:46:09.933Z,44.21
2023-03-04T21:48:36.487Z,44.21
2023-03-04T21:51:03.078Z,44.78
2023-03-04T21:53:29.636Z,44.94
2023-03-04T21:55:56.221Z,44.91
2023-03-04T21:58:23.117Z,44.99
2023-03-04T22:00:49.921Z,45.11
2023-03-04T22:03:16.600Z,45.13
2023-03-04T22:05:43.190Z,45.56
2023-03-04T22:08:09.841Z,45.35
2023-03-04T22:10:36.418Z,45.04
2023-03-04T22:13:03.009Z,45.33
2023-03-04T22:15:29.584Z,44.98
2023-03-04T22:17:56.235Z,45.39
2023-03-04T22:20:22.869Z,45.56
2023-03-04T22:22:49.436Z,45.52
2023-03-04T22:25:16.044Z,45.57
2023-03-04T22:27:42.647Z,46.02
2023-03-04T22:30:09.205Z,45.72
2023-03-04T22:32:35.846Z,45.72
2023-03-04T22:35:02.558Z,45.82
2023-03-04T22:37:29.207Z,46.77
2023-03-04T22:39:55.797Z,46.52
2023-03-04T22:42:22.391Z,47.08
2023-03-04T22:44:48.982Z,47.24
2023-03-04T22:47:15.587Z,46.90
2023-03-04T22:49:42.143Z,46.84
2023-03-04T22:52:08.723Z,46.74
2023-03-04T22:54:35.294Z,47.35
2023-03-04T22:57:01.897Z,47.47
2023-03-04T22:59:28.475Z,48.24
2023-03-04T23:01:55.075Z,47.81
2023-03-04T23:04:21.701Z,47.53
2023-03-04T23:06:48.278Z,47.86
2023-03-04T23:09:14.855Z,48.26
2023-03-04T23:11:41.440Z,48.26
2023-03-04T23:14:08.104Z,49.02
2023-03-04T23:16:34.711Z,49.24
2023-03-04T23:19:01.605Z,49.44
2023-03-04T23:21:28.346Z,48.34
2023-03-04T23:23:55.027Z,47.92
2023-03-04T23:26:21.667Z,47.90
2023-03-04T23:28:48.260Z,48.52
2023-03-04T23:31:15.020Z,47.38
2023-03-04T23:33:41.639Z,47.69
2023-03-04T23:36:08.222Z,47.16
2023-03-04T23:38:34.795Z,48.55
2023-03-04T23:41:01.391Z,48.33
2023-03-04T23:43:28.007Z,48.22
2023-03-04T23:45:55.051Z,49.15
2023-03-04T23:48:21.668Z,48.70
2023-03-04T23:50:48.264Z,49.00
2023-03-04T23:53:14.830Z,48.99
2023-03-04T23:55:41.435Z,48.25
2023-03-04T23:58:08.000Z,48.78
